Time;durP1;ratioP1;P1;durP2;ratioP2;P2;SDS_P1;SDS_P2;PMS_P1;PMS_P2;Temp;Humidity;BMP_temperature;BMP_pressure;BME280_temperature;BME280_humidity;BME280_pressure;Samples;Min_cycle;Max_cycle;Signal;HPM_P1;HPM_P2
2022/10/08 00:01:15;;;;;;;2.33;0.60;;;;;;;19.29;44.52;101625.31;16131443;19;131019;-59
2022/10/08 00:06:37;;;;;;;1.70;0.50;;;;;;;19.28;44.45;101620.84;16133103;19;129740;-59
2022/10/08 00:11:58;;;;;;;1.08;0.52;;;;;;;19.27;44.31;101619.13;16133466;19;129471;-59
2022/10/08 00:17:20;;;;;;;4.07;0.70;;;;;;;19.26;44.06;101617.44;16131290;19;129638;-59
2022/10/08 00:22:42;;;;;;;1.40;0.60;;;;;;;19.26;44.11;101619.38;16133364;19;129924;-59
2022/10/08 00:28:04;;;;;;;1.65;0.55;;;;;;;19.24;44.38;101616.81;16131416;19;129468;-59
2022/10/08 00:33:26;;;;;;;4.47;0.90;;;;;;;19.23;44.35;101615.13;16128238;19;129915;-58
2022/10/08 00:38:48;;;;;;;1.27;0.70;;;;;;;19.21;44.10;101618.16;16125128;19;130462;-59
2022/10/08 00:44:53;;;;;;;1.10;0.50;;;;;;;19.25;44.40;101609.38;16130510;19;131645;-58
2022/10/08 00:50:19;;;;;;;2.80;0.80;;;;;;;19.22;44.07;101607.88;16122529;19;130954;-59
2022/10/08 00:55:41;;;;;;;2.05;0.80;;;;;;;19.22;44.45;101608.75;16131262;19;129726;-59
2022/10/08 01:01:04;;;;;;;2.33;0.93;;;;;;;19.23;43.96;101609.59;16128075;19;129263;-59
2022/10/08 01:06:40;;;;;;;1.42;0.60;;;;;;;19.22;43.96;101611.53;16126942;19;129642;-59
2022/10/08 01:12:52;;;;;;;2.30;0.90;;;;;;;19.21;44.17;101614.50;16127833;19;129762;-60
2022/10/08 01:18:38;;;;;;;3.92;0.93;;;;;;;19.20;44.03;101623.91;16122852;19;129426;-59
2022/10/08 01:25:31;;;;;;;2.97;0.73;;;;;;;19.19;44.28;101622.22;16123024;19;130269;-59
2022/10/08 01:30:15;;;;;;;2.85;0.70;;;;;;;19.18;44.28;101626.06;16125185;19;130708;-61
2022/10/08 01:35:43;;;;;;;3.60;0.73;;;;;;;19.17;44.06;101632.69;16127021;19;130440;-59
2022/10/08 01:41:08;;;;;;;1.13;0.50;;;;;;;19.17;44.41;101641.84;16122304;19;130970;-59
2022/10/08 01:46:32;;;;;;;3.77;0.77;;;;;;;19.15;43.93;101660.63;16126424;19;129820;-59
2022/10/08 01:52:00;;;;;;;0.80;0.57;;;;;;;19.16;44.06;101664.28;16124554;19;130334;-59
2022/10/08 01:57:25;;;;;;;3.28;0.73;;;;;;;19.14;44.18;101667.25;16123460;19;130097;-59
2022/10/08 02:02:47;;;;;;;2.77;0.60;;;;;;;19.14;44.26;101658.94;16122154;19;129612;-59
2022/10/08 02:08:09;;;;;;;3.50;0.90;;;;;;;19.14;44.10;101669.19;16122978;19;130115;-59
2022/10/08 02:13:31;;;;;;;2.55;0.75;;;;;;;19.13;43.98;101673.06;16126988;19;129496;-59
2022/10/08 02:19:04;;;;;;;3.50;0.80;;;;;;;19.14;43.87;101680.31;16124822;19;131700;-59
2022/10/08 02:24:49;;;;;;;1.90;0.70;;;;;;;19.12;43.98;101672.22;16122745;19;129528;-59
2022/10/08 02:30:12;;;;;;;0.77;0.50;;;;;;;19.12;44.38;101682.44;16122401;19;129569;-59
2022/10/08 02:35:41;;;;;;;0.70;0.32;;;;;;;19.11;43.94;101672.44;16121671;19;129700;-59
2022/10/08 02:41:06;;;;;;;2.22;0.70;;;;;;;19.11;43.97;101675.22;16122688;19;129650;-59
2022/10/08 02:46:36;;;;;;;2.60;0.50;;;;;;;19.11;44.43;101686.31;16122534;19;131587;-59
2022/10/08 02:52:00;;;;;;;1.33;0.55;;;;;;;19.10;44.11;101685.47;16124117;19;133918;-59
2022/10/08 02:57:30;;;;;;;1.90;0.70;;;;;;;19.10;44.24;101679.91;16121458;19;129964;-59
2022/10/08 03:02:57;;;;;;;1.17;0.32;;;;;;;19.08;44.25;101671.81;16122115;19;129669;-59
2022/10/08 03:08:20;;;;;;;1.50;0.60;;;;;;;19.08;44.08;101682.91;16119281;19;130463;-59
2022/10/08 03:13:47;;;;;;;1.17;0.40;;;;;;;19.10;44.17;101690.16;16119486;19;129120;-58
2022/10/08 03:19:11;;;;;;;2.47;0.55;;;;;;;19.07;44.40;101686.78;16117980;19;129623;-59
2022/10/08 03:24:34;;;;;;;0.32;0.30;;;;;;;19.07;44.47;101694.25;16132573;19;130532;-59
2022/10/08 03:29:56;;;;;;;1.15;0.32;;;;;;;19.06;44.06;101687.88;16138282;19;130208;-59
2022/10/08 03:35:18;;;;;;;0.52;0.30;;;;;;;19.06;44.05;101690.63;16134874;19;129590;-59
2022/10/08 03:40:41;;;;;;;0.63;0.30;;;;;;;19.06;44.29;101706.41;16134297;19;129787;-59
2022/10/08 03:46:03;;;;;;;0.77;0.30;;;;;;;19.05;44.31;101705.56;16132324;19;129106;-59
2022/10/08 03:51:25;;;;;;;1.45;0.50;;;;;;;19.05;44.33;101699.16;16133289;19;129454;-59
2022/10/08 03:56:47;;;;;;;1.33;0.40;;;;;;;19.04;44.46;101697.47;16132578;19;129198;-59
2022/10/08 04:02:08;;;;;;;0.80;0.40;;;;;;;19.04;44.39;101698.34;16133078;19;129957;-59
2022/10/08 04:07:30;;;;;;;1.10;0.38;;;;;;;19.03;44.10;101696.63;16131065;19;129316;-59
2022/10/08 04:12:52;;;;;;;1.02;0.40;;;;;;;19.02;44.54;101706.03;16131896;19;129865;-59
2022/10/08 04:18:13;;;;;;;0.85;0.40;;;;;;;19.03;44.39;101718.81;16132574;19;129454;-59
2022/10/08 04:23:37;;;;;;;1.55;0.40;;;;;;;19.02;44.37;101722.66;16132037;19;129157;-59
2022/10/08 04:28:59;;;;;;;1.85;0.70;;;;;;;19.01;44.16;101726.50;16129524;19;129543;-59
2022/10/08 04:34:21;;;;;;;1.13;0.40;;;;;;;19.01;44.38;101732.06;16128681;19;129568;-59
2022/10/08 04:39:42;;;;;;;1.02;0.30;;;;;;;19.00;44.54;101741.47;16131117;19;129672;-59
2022/10/08 04:45:04;;;;;;;1.60;0.35;;;;;;;18.99;44.26;101739.75;16129456;19;129393;-59
2022/10/08 04:50:26;;;;;;;1.33;0.50;;;;;;;18.99;44.09;101756.41;16129223;19;129515;-59
2022/10/08 04:55:48;;;;;;;1.15;0.40;;;;;;;18.99;44.54;101753.63;16129137;19;129744;-59
2022/10/08 05:01:12;;;;;;;1.25;0.30;;;;;;;18.98;44.16;101760.25;16126555;19;130988;-59
2022/10/08 05:06:34;;;;;;;0.88;0.40;;;;;;;18.97;44.13;101772.41;16129280;19;130159;-60
2022/10/08 05:11:56;;;;;;;1.08;0.40;;;;;;;18.96;44.50;101767.94;16129975;19;129362;-59
2022/10/08 05:17:17;;;;;;;0.47;0.30;;;;;;;18.96;44.62;101773.47;16128042;19;129925;-59
2022/10/08 05:22:39;;;;;;;0.32;0.20;;;;;;;18.95;44.56;101777.38;16127922;19;130150;-59
2022/10/08 05:28:02;;;;;;;0.43;0.20;;;;;;;18.95;44.28;101782.03;16125082;19;129716;-58
2022/10/08 05:33:23;;;;;;;0.85;0.30;;;;;;;18.94;44.29;101792.28;16125864;19;130528;-58
2022/10/08 05:38:45;;;;;;;1.40;0.40;;;;;;;18.92;44.14;101798.06;16126817;19;129329;-58
2022/10/08 05:44:09;;;;;;;0.57;0.32;;;;;;;18.90;44.65;101807.69;16124327;19;129463;-58
2022/10/08 05:49:31;;;;;;;1.02;0.65;;;;;;;18.98;44.11;101821.25;16126886;19;129314;-58
2022/10/08 05:54:53;;;;;;;0.52;0.32;;;;;;;19.07;44.35;101830.13;16125541;19;129605;-58
2022/10/08 06:00:14;;;;;;;1.70;0.50;;;;;;;19.13;44.05;101833.91;16125027;19;129478;-58
2022/10/08 06:05:36;;;;;;;0.98;0.25;;;;;;;19.17;44.05;101843.50;16124599;19;129828;-58
2022/10/08 06:10:58;;;;;;;0.55;0.28;;;;;;;19.17;44.15;101846.28;16125588;19;133259;-58
2022/10/08 06:16:21;;;;;;;0.50;0.30;;;;;;;19.15;44.09;101854.81;16126085;19;129451;-59
2022/10/08 06:21:42;;;;;;;0.77;0.30;;;;;;;19.17;43.88;101868.47;16125853;19;129346;-59
2022/10/08 06:27:04;;;;;;;1.98;0.50;;;;;;;19.21;44.17;101864.16;16122727;19;130285;-59
2022/10/08 06:32:26;;;;;;;0.40;0.20;;;;;;;19.25;43.61;101875.69;16122285;19;130066;-59
2022/10/08 06:37:48;;;;;;;0.68;0.30;;;;;;;19.30;43.64;101887.78;16123961;19;129269;-59
2022/10/08 06:43:12;;;;;;;1.63;0.35;;;;;;;19.34;43.65;101889.03;16120429;19;129761;-59
2022/10/08 06:48:34;;;;;;;1.47;0.40;;;;;;;19.40;43.71;101903.06;16122877;19;129821;-60
2022/10/08 06:53:57;;;;;;;1.42;0.40;;;;;;;19.45;43.45;101904.09;16122925;19;129812;-59
2022/10/08 06:59:27;;;;;;;6.32;0.70;;;;;;;19.50;43.43;101909.81;16118923;19;129496;-60
2022/10/08 07:04:49;;;;;;;1.60;0.43;;;;;;;19.57;43.67;101929.16;16118125;19;130141;-59
2022/10/08 07:10:11;;;;;;;2.22;0.60;;;;;;;19.64;43.09;101943.81;16120024;19;129420;-60
2022/10/08 07:15:32;;;;;;;3.20;0.77;;;;;;;19.69;43.24;101952.31;16120668;19;129455;-60
2022/10/08 07:20:55;;;;;;;3.22;0.80;;;;;;;20.66;41.78;101969.38;16119929;19;129267;-63
2022/10/08 07:26:19;;;;;;;2.95;0.82;;;;;;;22.02;39.38;101975.38;16119058;19;129558;-65
2022/10/08 07:31:41;;;;;;;1.60;0.55;;;;;;;22.30;38.69;101978.50;16115873;19;130544;-60
2022/10/08 07:37:03;;;;;;;7.97;1.25;;;;;;;22.26;39.03;101992.09;16117337;19;129293;-60
2022/10/08 07:42:24;;;;;;;5.90;1.20;;;;;;;23.63;36.83;101994.13;16118406;19;129444;-60
2022/10/08 07:47:46;;;;;;;4.45;1.05;;;;;;;22.52;37.96;102007.41;16119614;19;130039;-59
2022/10/08 07:53:08;;;;;;;3.58;0.88;;;;;;;23.01;37.77;102014.53;16116553;19;130407;-59
2022/10/08 07:58:30;;;;;;;4.30;1.13;;;;;;;22.72;38.02;102012.56;16116936;19;129588;-58
2022/10/08 08:03:54;;;;;;;4.78;1.02;;;;;;;22.49;37.99;102016.25;16114766;19;129568;-59
2022/10/08 08:09:17;;;;;;;5.78;1.13;;;;;;;23.32;36.99;102032.69;16128197;19;129322;-60
2022/10/08 08:14:38;;;;;;;7.40;1.00;;;;;;;22.65;37.83;102036.13;16127383;19;129949;-60
2022/10/08 08:20:00;;;;;;;2.85;0.90;;;;;;;22.05;38.67;102041.75;16133641;19;130369;-59
2022/10/08 08:25:22;;;;;;;5.32;1.10;;;;;;;21.58;39.66;102052.84;16133026;19;129183;-56
2022/10/08 08:30:43;;;;;;;3.58;1.02;;;;;;;21.25;40.00;102068.09;16129732;19;128898;-59
2022/10/08 08:36:05;;;;;;;8.52;1.15;;;;;;;20.99;40.59;102061.84;16127778;19;129835;-59
2022/10/08 08:41:45;;;;;;;9.50;1.30;;;;;;;20.82;40.82;102075.53;16129419;19;130846;-59
2022/10/08 08:47:13;;;;;;;5.20;1.38;;;;;;;20.65;41.34;102078.06;16128832;19;129525;-59
2022/10/08 08:52:41;;;;;;;8.40;1.30;;;;;;;20.54;41.47;102091.66;16130046;19;129682;-59
2022/10/08 08:58:07;;;;;;;8.60;1.35;;;;;;;20.47;41.86;102085.31;16131081;19;129314;-58
2022/10/08 09:03:38;;;;;;;9.32;1.42;;;;;;;20.39;42.04;102096.75;16126955;19;129496;-59
2022/10/08 09:09:11;;;;;;;6.53;1.23;;;;;;;20.30;42.14;102104.53;16124441;19;130115;-59
2022/10/08 09:14:43;;;;;;;7.57;1.48;;;;;;;20.21;42.53;102106.75;16126549;19;130909;-58
2022/10/08 09:20:05;;;;;;;7.45;1.23;;;;;;;20.13;42.45;102116.22;16123795;19;130409;-59
2022/10/08 09:25:31;;;;;;;7.32;1.40;;;;;;;20.08;42.84;102115.19;16123867;19;130111;-59
2022/10/08 09:30:53;;;;;;;13.60;2.33;;;;;;;20.06;42.61;102131.25;16126593;19;133294;-59
2022/10/08 09:36:30;;;;;;;6.28;1.58;;;;;;;20.03;42.99;102131.72;16126264;19;129600;-59
2022/10/08 09:42:06;;;;;;;12.63;2.00;;;;;;;20.03;42.69;102148.38;16126367;19;129741;-59
2022/10/08 09:47:29;;;;;;;8.02;1.92;;;;;;;19.98;43.15;102149.88;16124975;19;129709;-59
2022/10/08 09:52:54;;;;;;;10.75;1.70;;;;;;;19.97;43.28;102153.72;16123714;19;129287;-59
2022/10/08 09:58:18;;;;;;;4.90;1.52;;;;;;;19.95;43.11;102168.91;16120171;19;129313;-59
2022/10/08 10:03:52;;;;;;;12.52;1.73;;;;;;;19.90;43.08;102169.59;16121457;19;130318;-59
2022/10/08 10:09:32;;;;;;;9.38;2.17;;;;;;;19.86;43.10;102173.03;16121094;19;129520;-59
2022/10/08 10:15:00;;;;;;;8.52;1.48;;;;;;;19.80;42.91;102188.69;16124144;19;129604;-59
2022/10/08 10:20:32;;;;;;;8.35;1.63;;;;;;;19.76;43.01;102184.63;16123246;19;130742;-60
2022/10/08 10:26:07;;;;;;;8.77;2.00;;;;;;;19.73;43.18;102179.53;16122246;19;129474;-60
2022/10/08 10:31:37;;;;;;;10.27;1.50;;;;;;;19.68;43.10;102188.53;16121279;19;129308;-60
2022/10/08 10:37:11;;;;;;;6.00;1.38;;;;;;;19.69;42.80;102193.84;16119732;19;129814;-60
2022/10/08 10:42:38;;;;;;;11.48;1.33;;;;;;;19.68;43.24;102196.84;16118888;19;129398;-61
2022/10/08 10:48:01;;;;;;;4.47;1.13;;;;;;;19.72;43.05;102202.81;16119192;19;129981;-61
2022/10/08 10:53:41;;;;;;;10.88;1.40;;;;;;;19.72;42.50;102202.81;16118408;19;130127;-61
2022/10/08 10:59:34;;;;;;;4.88;1.05;;;;;;;19.65;42.28;102202.84;16118587;19;129927;-60
2022/10/08 11:05:25;;;;;;;6.28;1.25;;;;;;;19.62;41.38;102203.31;16120169;19;129323;-60
2022/10/08 11:11:05;;;;;;;5.57;1.52;;;;;;;19.65;40.73;102197.28;16116859;19;130656;-63
2022/10/08 11:16:46;;;;;;;5.40;1.10;;;;;;;19.76;40.24;102212.41;16110159;19;129366;-63
2022/10/08 11:22:23;;;;;;;5.63;1.15;;;;;;;19.86;39.63;102215.53;16113541;19;130891;-63
2022/10/08 11:27:57;;;;;;;7.60;1.20;;;;;;;19.95;39.01;102211.41;16116560;19;131395;-63
2022/10/08 11:33:19;;;;;;;4.78;1.00;;;;;;;19.99;38.77;102207.16;16118312;19;130026;-63
2022/10/08 11:38:50;;;;;;;3.47;0.70;;;;;;;20.03;38.34;102221.44;16116407;19;129894;-63
2022/10/08 11:44:12;;;;;;;3.67;0.73;;;;;;;20.06;38.05;102220.16;16128030;19;130677;-63
2022/10/08 11:49:37;;;;;;;3.22;1.00;;;;;;;20.10;37.96;102215.84;16132847;19;129803;-63
2022/10/08 11:55:03;;;;;;;4.38;0.95;;;;;;;20.11;37.17;102217.53;16132977;19;130197;-63
2022/10/08 12:00:40;;;;;;;6.75;1.02;;;;;;;20.11;37.02;102218.41;16130650;19;130219;-64
2022/10/08 12:06:25;;;;;;;4.45;1.10;;;;;;;20.11;36.81;102223.09;16132928;19;129468;-61
2022/10/08 12:11:49;;;;;;;5.88;1.10;;;;;;;20.09;37.21;102214.13;16127261;19;130699;-62
2022/10/08 12:17:11;;;;;;;9.65;1.63;;;;;;;20.04;36.71;102213.97;16126479;19;131584;-62
2022/10/08 12:22:33;;;;;;;6.78;1.10;;;;;;;20.01;36.95;102217.19;16131805;19;132261;-54
2022/10/08 12:28:17;;;;;;;11.52;1.30;;;;;;;19.95;37.41;102227.25;16130852;19;129508;-44
2022/10/08 12:33:40;;;;;;;11.10;1.40;;;;;;;19.84;38.55;102229.66;16129401;19;129439;-44
2022/10/08 12:39:41;;;;;;;7.68;1.48;;;;;;;19.79;39.17;102234.19;16133740;19;129660;-44
2022/10/08 12:45:33;;;;;;;6.53;0.90;;;;;;;19.77;39.44;102228.00;16131713;19;129704;-44
2022/10/08 12:51:42;;;;;;;16.38;1.95;;;;;;;19.79;38.57;102225.84;16130982;19;129698;-47
2022/10/08 12:57:10;;;;;;;14.00;1.58;;;;;;;19.75;39.11;102222.66;16118458;19;130078;-48
2022/10/08 13:02:41;;;;;;;17.77;2.00;;;;;;;19.75;38.62;102222.66;16119932;19;130056;-44
2022/10/08 13:08:36;;;;;;;7.88;1.65;;;;;;;19.75;38.45;102207.91;16121679;19;130219;-45
2022/10/08 13:13:58;;;;;;;8.25;1.30;;;;;;;19.65;38.04;102214.81;16118716;19;129652;-46
2022/10/08 13:19:36;;;;;;;8.80;1.73;;;;;;;19.68;38.03;102219.06;16118529;19;129882;-43
2022/10/08 13:24:58;;;;;;;8.75;1.30;;;;;;;19.64;38.55;102212.25;16124490;19;131454;-44
2022/10/08 13:30:26;;;;;;;9.63;1.25;;;;;;;19.64;38.51;102217.78;16118277;19;129119;-46
2022/10/08 13:35:55;;;;;;;5.40;1.20;;;;;;;19.63;38.27;102221.66;16127253;19;130180;-46
2022/10/08 13:41:22;;;;;;;6.78;1.15;;;;;;;19.64;38.58;102221.44;16129766;19;130528;-44
2022/10/08 13:46:44;;;;;;;5.88;1.13;;;;;;;19.62;38.32;102236.63;16128451;19;130873;-43
2022/10/08 13:52:14;;;;;;;6.50;1.05;;;;;;;19.65;39.20;102231.47;16125655;19;129878;-44
2022/10/08 13:57:36;;;;;;;6.10;1.30;;;;;;;19.67;38.83;102240.44;16126869;19;130474;-43
2022/10/08 14:02:58;;;;;;;7.50;1.23;;;;;;;19.68;38.69;102246.81;16124056;19;129510;-46
2022/10/08 14:08:27;;;;;;;7.95;0.98;;;;;;;19.67;38.91;102246.00;16121814;19;129336;-43
2022/10/08 14:13:48;;;;;;;6.80;0.90;;;;;;;19.65;39.39;102242.56;16125652;19;129650;-45
2022/10/08 14:19:10;;;;;;;3.47;0.80;;;;;;;19.63;39.53;102241.94;16121354;19;129269;-43
2022/10/08 14:24:32;;;;;;;9.13;0.80;;;;;;;19.59;39.21;102249.00;16123480;19;129466;-44
2022/10/08 14:29:54;;;;;;;4.95;0.60;;;;;;;19.57;39.67;102248.34;16120217;19;129546;-43
2022/10/08 14:35:16;;;;;;;3.40;0.60;;;;;;;19.56;39.06;102254.16;16121382;19;130454;-47
2022/10/08 14:40:38;;;;;;;4.65;0.73;;;;;;;19.52;39.50;102250.97;16122403;19;130159;-44
2022/10/08 14:46:00;;;;;;;6.65;1.27;;;;;;;19.51;39.59;102261.19;16124225;19;131579;-43
2022/10/08 14:51:21;;;;;;;4.32;0.93;;;;;;;19.51;39.56;102258.41;16121851;19;130627;-46
2022/10/08 14:56:44;;;;;;;7.72;0.98;;;;;;;19.53;39.99;102263.78;16120189;19;132035;-44
2022/10/08 15:02:09;;;;;;;3.15;0.75;;;;;;;19.56;39.91;102257.78;16115599;19;129679;-43
2022/10/08 15:07:31;;;;;;;5.67;0.87;;;;;;;19.53;39.63;102263.78;16120462;19;130530;-44
2022/10/08 15:12:52;;;;;;;4.97;0.95;;;;;;;19.52;39.87;102267.63;16119643;19;130190;-45
2022/10/08 15:18:14;;;;;;;3.78;0.70;;;;;;;19.51;40.12;102263.13;16140600;19;129709;-44
2022/10/08 15:23:36;;;;;;;6.38;0.95;;;;;;;19.51;40.13;102257.59;16151134;19;129062;-48
2022/10/08 15:28:58;;;;;;;3.20;0.55;;;;;;;19.52;39.86;102270.41;16150180;19;129852;-43
2022/10/08 15:34:19;;;;;;;2.53;0.68;;;;;;;19.52;39.74;102273.16;16147864;19;129851;-45
2022/10/08 15:39:41;;;;;;;4.47;0.50;;;;;;;19.51;39.85;102274.25;16149801;19;129313;-43
2022/10/08 15:45:03;;;;;;;5.38;0.40;;;;;;;19.50;39.87;102272.53;16149926;19;129718;-45
2022/10/08 15:50:25;;;;;;;5.15;0.80;;;;;;;19.51;40.32;102275.06;16147538;19;129397;-47
2022/10/08 15:55:56;;;;;;;4.57;0.73;;;;;;;19.57;40.03;102278.91;16147702;19;129596;-43
2022/10/08 16:01:21;;;;;;;9.68;0.82;;;;;;;19.61;39.96;102280.16;16148520;19;133838;-46
2022/10/08 16:06:46;;;;;;;17.23;1.57;;;;;;;19.61;40.11;102282.94;16148282;19;129990;-44
2022/10/08 16:12:08;;;;;;;9.20;1.33;;;;;;;19.61;40.33;102287.66;16148506;19;129126;-45
2022/10/08 16:17:29;;;;;;;5.82;1.20;;;;;;;19.59;40.22;102293.41;16148560;19;129983;-45
2022/10/08 16:22:51;;;;;;;10.68;1.75;;;;;;;19.55;40.03;102292.16;16148627;19;130090;-47
2022/10/08 16:28:13;;;;;;;9.80;1.58;;;;;;;19.54;40.01;102296.00;16138217;19;134401;-44
2022/10/08 16:33:35;;;;;;;8.73;1.60;;;;;;;19.53;40.38;102316.50;16133044;19;129693;-44
2022/10/08 16:38:56;;;;;;;8.95;1.85;;;;;;;19.52;40.46;102314.81;16130941;19;129432;-48
2022/10/08 16:44:20;;;;;;;14.88;1.85;;;;;;;19.50;40.35;102328.03;16129491;19;134635;-57
2022/10/08 16:49:42;;;;;;;11.13;1.70;;;;;;;19.50;39.99;102328.03;16129532;19;129511;-45
2022/10/08 16:55:04;;;;;;;18.20;1.77;;;;;;;19.52;40.38;102326.75;16129210;19;130410;-45
2022/10/08 17:00:26;;;;;;;15.73;2.03;;;;;;;19.53;40.35;102344.28;16125468;19;129268;-43
2022/10/08 17:05:48;;;;;;;19.73;2.17;;;;;;;19.56;40.57;102342.97;16127251;19;129611;-46
2022/10/08 17:11:11;;;;;;;13.20;1.70;;;;;;;19.57;40.67;102345.53;16127635;19;129582;-46
2022/10/08 17:16:34;;;;;;;16.10;1.90;;;;;;;19.60;40.84;102358.97;16128216;19;133428;-45
2022/10/08 17:21:56;;;;;;;7.35;1.20;;;;;;;19.64;41.05;102368.56;16130922;19;129542;-48
2022/10/08 17:27:17;;;;;;;13.52;1.73;;;;;;;19.65;41.08;102370.28;16126238;19;129246;-46
2022/10/08 17:32:39;;;;;;;8.43;1.70;;;;;;;19.64;40.98;102376.91;16127825;19;129628;-46
2022/10/08 17:38:01;;;;;;;11.45;1.40;;;;;;;19.62;41.26;102381.81;16127865;19;129684;-47
2022/10/08 17:43:23;;;;;;;12.50;1.80;;;;;;;19.62;41.00;102392.94;16121041;19;129406;-48
2022/10/08 17:48:45;;;;;;;7.38;0.90;;;;;;;19.61;41.05;102394.00;16124147;19;129247;-50
2022/10/08 17:54:11;;;;;;;8.15;1.10;;;;;;;19.61;41.37;102409.81;16122742;19;129441;-44
2022/10/08 17:59:32;;;;;;;8.15;1.30;;;;;;;19.63;41.45;102414.06;16125470;19;129785;-44
2022/10/08 18:04:54;;;;;;;4.97;0.90;;;;;;;19.71;41.84;102412.97;16121789;19;129385;-47
2022/10/08 18:10:16;;;;;;;7.82;1.15;;;;;;;19.81;41.63;102423.66;16122610;19;129628;-48
2022/10/08 18:15:37;;;;;;;6.70;1.13;;;;;;;19.86;42.18;102425.75;16126883;19;129504;-47
2022/10/08 18:21:00;;;;;;;6.22;1.42;;;;;;;19.92;42.07;102430.44;16122347;19;129376;-48
2022/10/08 18:26:24;;;;;;;4.93;1.00;;;;;;;20.03;42.35;102437.28;16119919;19;130016;-47
2022/10/08 18:31:45;;;;;;;7.05;1.10;;;;;;;20.12;42.33;102435.94;16125451;19;129661;-48
2022/10/08 18:37:07;;;;;;;7.57;1.20;;;;;;;20.18;42.35;102451.75;16122672;19;130333;-44
2022/10/08 18:42:29;;;;;;;11.52;1.10;;;;;;;20.26;42.20;102445.94;16125292;19;130416;-42
2022/10/08 18:47:50;;;;;;;8.90;1.02;;;;;;;20.33;41.84;102443.13;16119988;19;129476;-48
2022/10/08 18:53:12;;;;;;;9.88;1.15;;;;;;;20.38;42.08;102457.22;16117569;19;129674;-44
2022/10/08 18:58:34;;;;;;;12.35;1.15;;;;;;;20.44;41.88;102458.25;16120210;19;129512;-46
2022/10/08 19:03:58;;;;;;;6.43;1.20;;;;;;;20.43;42.37;102464.91;16121048;19;129803;-45
2022/10/08 19:09:21;;;;;;;8.20;1.20;;;;;;;20.41;42.13;102465.13;16116122;19;129646;-46
2022/10/08 19:14:42;;;;;;;12.80;1.45;;;;;;;20.42;42.48;102468.75;16118025;19;130255;-49
2022/10/08 19:20:04;;;;;;;10.90;1.52;;;;;;;20.40;42.14;102482.03;16119456;19;129635;-45
2022/10/08 19:25:28;;;;;;;6.63;0.80;;;;;;;20.37;42.67;102476.91;16117968;19;129411;-49
2022/10/08 19:30:50;;;;;;;12.25;1.48;;;;;;;20.35;42.57;102487.38;16115351;19;131285;-47
2022/10/08 19:36:13;;;;;;;7.13;1.00;;;;;;;20.31;42.39;102478.63;16118049;19;129251;-45
2022/10/08 19:41:37;;;;;;;9.15;0.98;;;;;;;20.27;42.49;102486.56;16118597;19;129447;-45
2022/10/08 19:46:58;;;;;;;9.95;1.17;;;;;;;20.29;42.32;102486.34;16120627;19;130605;-45
2022/10/08 19:52:20;;;;;;;14.75;1.20;;;;;;;20.29;42.35;102487.19;16113697;19;129926;-46
2022/10/08 19:57:42;;;;;;;3.53;0.82;;;;;;;20.29;42.79;102487.19;16115408;19;129277;-48
2022/10/08 20:03:03;;;;;;;8.52;1.25;;;;;;;20.28;42.92;102492.97;16119118;19;129182;-47
2022/10/08 20:08:25;;;;;;;8.13;1.13;;;;;;;20.27;42.80;102492.13;16129122;19;130158;-48
2022/10/08 20:13:48;;;;;;;5.95;0.80;;;;;;;20.26;43.18;102498.75;16129182;19;130563;-45
2022/10/08 20:19:16;;;;;;;9.02;0.80;;;;;;;20.24;43.00;102500.88;16128221;19;130797;-50
2022/10/08 20:24:38;;;;;;;9.07;1.45;;;;;;;20.17;42.99;102497.28;16131845;19;130330;-45
2022/10/08 20:29:59;;;;;;;12.23;0.80;;;;;;;20.11;42.68;102509.25;16131856;19;129625;-47
2022/10/08 20:35:21;;;;;;;8.27;1.00;;;;;;;20.07;42.90;102505.19;16126623;19;130691;-45
2022/10/08 20:40:43;;;;;;;2.70;0.95;;;;;;;20.02;42.48;102503.09;16130452;19;130476;-45
2022/10/08 20:46:07;;;;;;;3.88;0.73;;;;;;;19.95;42.58;102508.63;16128642;19;129720;-45
2022/10/08 20:51:30;;;;;;;7.40;0.90;;;;;;;19.89;42.65;102506.72;16126198;19;130369;-48
2022/10/08 20:56:52;;;;;;;4.53;0.80;;;;;;;19.84;42.90;102501.81;16127958;19;129221;-44
2022/10/08 21:02:14;;;;;;;4.50;0.75;;;;;;;19.83;42.83;102504.78;16128135;19;129183;-44
2022/10/08 21:07:40;;;;;;;3.95;0.80;;;;;;;19.79;42.93;102509.09;16130827;19;129803;-46
2022/10/08 21:13:02;;;;;;;5.53;0.43;;;;;;;19.79;42.51;102515.50;16129350;19;129043;-48
2022/10/08 21:18:24;;;;;;;4.93;0.50;;;;;;;19.79;42.55;102514.66;16125871;19;129831;-46
2022/10/08 21:23:47;;;;;;;2.33;0.47;;;;;;;19.75;42.41;102508.69;16129056;19;129153;-45
2022/10/08 21:29:11;;;;;;;6.00;0.60;;;;;;;19.73;42.38;102516.38;16127119;19;129493;-50
2022/10/08 21:34:33;;;;;;;1.90;0.50;;;;;;;19.66;42.64;102502.50;16133310;19;132159;-45
2022/10/08 21:39:55;;;;;;;3.65;0.50;;;;;;;19.66;42.50;102510.81;16128170;19;129377;-47
2022/10/08 21:45:16;;;;;;;1.42;0.50;;;;;;;19.62;42.33;102503.97;16126422;19;129613;-46
2022/10/08 21:50:38;;;;;;;2.15;0.47;;;;;;;19.59;42.48;102498.84;16128510;19;134714;-46
2022/10/08 21:56:09;;;;;;;2.33;0.52;;;;;;;19.58;42.48;102512.94;16124960;19;129637;-44
2022/10/08 22:01:35;;;;;;;3.20;0.43;;;;;;;19.55;42.82;102505.03;16125792;19;129899;-45
2022/10/08 22:06:57;;;;;;;;;;;;;;;19.49;42.68;102510.41;16125639;19;130102;-47
2022/10/08 22:12:18;;;;;;;1.02;0.50;;;;;;;19.49;42.66;102503.97;16123549;19;130602;-45
2022/10/08 22:17:40;;;;;;;0.98;0.30;;;;;;;19.45;42.63;102511.88;16123739;19;129941;-45
2022/10/08 22:23:02;;;;;;;1.85;0.40;;;;;;;19.43;42.89;102505.69;16123532;19;129757;-45
2022/10/08 22:28:24;;;;;;;0.50;0.40;;;;;;;19.41;42.56;102513.38;16120134;19;130343;-46
2022/10/08 22:33:47;;;;;;;1.90;0.50;;;;;;;19.39;43.00;102515.50;16122702;19;129494;-45
2022/10/08 22:39:09;;;;;;;1.02;0.40;;;;;;;19.37;42.91;102512.94;16120858;19;129652;-46
2022/10/08 22:44:32;;;;;;;1.98;0.80;;;;;;;19.36;42.96;102510.41;16123031;19;129888;-45
2022/10/08 22:49:53;;;;;;;0.68;0.38;;;;;;;19.32;42.59;102507.16;16123266;19;130566;-45
2022/10/08 22:55:16;;;;;;;2.03;0.80;;;;;;;19.31;42.83;102508.25;16120105;19;129210;-47
2022/10/08 23:00:37;;;;;;;1.88;0.52;;;;;;;19.29;42.56;102499.28;16122178;19;129119;-45
2022/10/08 23:06:01;;;;;;;0.43;0.40;;;;;;;19.29;42.90;102496.50;16119688;19;129777;-45
2022/10/08 23:11:24;;;;;;;0.70;0.40;;;;;;;19.25;42.81;102486.91;16120944;19;130447;-45
2022/10/08 23:16:47;;;;;;;0.55;0.50;;;;;;;19.24;42.73;102484.34;16120975;19;130382;-46
2022/10/08 23:22:09;;;;;;;2.47;0.50;;;;;;;19.23;42.97;102486.25;16119608;19;129151;-48
2022/10/08 23:27:31;;;;;;;1.50;0.80;;;;;;;19.23;42.91;102477.94;16117384;19;130253;-45
2022/10/08 23:32:52;;;;;;;1.60;0.63;;;;;;;19.21;42.77;102474.50;16117247;19;129015;-47
2022/10/08 23:38:14;;;;;;;1.42;0.63;;;;;;;19.19;42.51;102471.09;16129492;19;129843;-46
2022/10/08 23:43:38;;;;;;;1.50;0.70;;;;;;;19.17;42.73;102468.50;16135962;19;130112;-45
2022/10/08 23:49:00;;;;;;;2.28;0.80;;;;;;;19.17;42.54;102467.66;16136319;19;130523;-44
2022/10/08 23:54:22;;;;;;;1.02;0.73;;;;;;;19.15;42.87;102470.63;16135118;19;129488;-46
2022/10/08 23:59:43;;;;;;;1.73;0.70;;;;;;;19.15;42.94;102472.56;16134268;19;129406;-49
